Time;durP1;ratioP1;P1;durP2;ratioP2;P2;SDS_P1;SDS_P2;PMS_P1;PMS_P2;Temp;Humidity;BMP_temperature;BMP_pressure;BME280_temperature;BME280_humidity;BME280_pressure;Samples;Min_cycle;Max_cycle;Signal;HPM_P1;HPM_P2
2021/05/27 00:00:23;;;;;;;4.18;2.92;;;;;;;8.31;100.00;97435.91;5056660;28;20045;-83
2021/05/27 00:02:51;;;;;;;5.05;2.72;;;;;;;8.24;100.00;97437.38;5023660;28;20056;-85
2021/05/27 00:05:18;;;;;;;3.47;2.63;;;;;;;8.21;100.00;97443.41;5039287;28;20048;-86
2021/05/27 00:07:46;;;;;;;4.85;2.42;;;;;;;8.20;100.00;97436.41;5040145;28;20056;-85
2021/05/27 00:10:15;;;;;;;4.78;2.58;;;;;;;8.25;100.00;97444.38;5057127;28;20041;-84
2021/05/27 00:12:43;;;;;;;4.03;2.40;;;;;;;8.22;100.00;97445.78;5021855;28;20067;-84
2021/05/27 00:15:11;;;;;;;8.43;2.08;;;;;;;8.25;100.00;97447.09;5056019;28;20045;-84
2021/05/27 00:17:38;;;;;;;4.10;2.63;;;;;;;8.24;100.00;97453.56;5040914;28;20041;-82
2021/05/27 00:20:08;;;;;;;4.35;2.88;;;;;;;8.21;100.00;97451.50;5056090;28;20048;-84
2021/05/27 00:22:36;;;;;;;4.47;2.63;;;;;;;8.14;100.00;97447.31;5024281;28;20064;-84
2021/05/27 00:25:07;;;;;;;5.93;2.75;;;;;;;8.07;100.00;97446.94;5055085;28;20047;-85
2021/05/27 00:27:39;;;;;;;4.63;2.70;;;;;;;8.05;100.00;97446.41;5026655;28;20059;-86
2021/05/27 00:30:07;;;;;;;3.55;2.67;;;;;;;7.98;100.00;97448.72;5055336;28;20064;-85
2021/05/27 00:32:34;;;;;;;7.38;3.17;;;;;;;7.96;100.00;97442.84;5056031;28;20148;-84
2021/05/27 00:35:02;;;;;;;6.82;3.50;;;;;;;7.92;100.00;97451.84;5023480;28;20044;-83
2021/05/27 00:37:30;;;;;;;8.50;3.60;;;;;;;7.85;100.00;97454.94;5056032;28;20100;-83
2021/05/27 00:39:56;;;;;;;5.80;3.35;;;;;;;7.80;100.00;97455.06;5022824;28;20052;-83
2021/05/27 00:42:23;;;;;;;6.40;3.97;;;;;;;7.72;100.00;97455.75;5024689;28;20049;-84
2021/05/27 00:45:17;;;;;;;5.72;3.53;;;;;;;7.73;100.00;97461.94;5022277;28;20075;-85
2021/05/27 00:47:45;;;;;;;6.25;3.70;;;;;;;7.70;100.00;97466.03;5022524;28;20044;-84
2021/05/27 00:50:20;;;;;;;6.97;4.32;;;;;;;7.63;100.00;97470.22;5024266;28;20049;-86
2021/05/27 00:52:52;;;;;;;5.38;3.92;;;;;;;7.62;100.00;97460.53;5025936;28;20045;-86
2021/05/27 00:55:21;;;;;;;8.43;4.25;;;;;;;7.62;100.00;97468.63;5063697;28;20132;-84
2021/05/27 00:57:49;;;;;;;6.90;4.15;;;;;;;7.61;100.00;97472.44;5057872;28;20055;-84
2021/05/27 01:00:18;;;;;;;9.05;4.60;;;;;;;7.59;100.00;97467.31;5040621;28;20051;-83
2021/05/27 01:02:45;;;;;;;7.60;4.35;;;;;;;7.52;100.00;97458.84;5040376;28;20040;-83
2021/05/27 01:05:13;;;;;;;9.05;5.10;;;;;;;7.50;100.00;97461.84;5040410;28;20049;-84
2021/05/27 01:07:40;;;;;;;7.90;5.10;;;;;;;7.48;100.00;97455.94;5025206;28;20063;-85
2021/05/27 01:10:09;;;;;;;10.02;5.70;;;;;;;7.43;100.00;97458.75;5040879;28;20091;-85
2021/05/27 01:12:36;;;;;;;9.32;5.72;;;;;;;7.49;100.00;97475.59;5057946;28;20047;-84
2021/05/27 01:17:51;;;;;;;8.77;5.53;;;;;;;7.42;100.00;97462.56;5040396;28;20045;-86
2021/05/27 01:20:18;;;;;;;9.55;5.45;;;;;;;7.33;100.00;97477.78;5024191;28;20048;-87
2021/05/27 01:22:44;;;;;;;10.02;6.00;;;;;;;7.29;100.00;97476.00;5040109;28;20591;-85
2021/05/27 01:25:12;;;;;;;9.18;5.85;;;;;;;7.22;100.00;97478.28;5056559;28;20036;-84
2021/05/27 01:27:39;;;;;;;7.75;5.68;;;;;;;7.22;100.00;97476.41;5057283;28;20049;-85
2021/05/27 01:30:08;;;;;;;8.68;5.70;;;;;;;7.20;100.00;97483.94;5022869;28;20052;-86
2021/05/27 01:32:37;;;;;;;9.35;5.38;;;;;;;7.17;100.00;97478.38;5023921;28;20044;-86
2021/05/27 01:35:13;;;;;;;7.50;5.55;;;;;;;7.17;100.00;97483.75;5023633;28;20040;-85
2021/05/27 01:37:39;;;;;;;8.55;5.50;;;;;;;7.16;100.00;97482.97;5029452;28;20045;-85
2021/05/27 01:40:08;;;;;;;11.52;5.88;;;;;;;7.11;100.00;97488.44;5039800;28;20037;-85
2021/05/27 01:42:34;;;;;;;13.50;5.90;;;;;;;7.13;100.00;97483.53;5023705;28;20131;-85
2021/05/27 01:45:02;;;;;;;9.60;5.55;;;;;;;7.11;100.00;97483.03;5023284;28;20049;-86
2021/05/27 01:47:29;;;;;;;8.60;6.18;;;;;;;7.09;100.00;97482.53;5058023;28;20037;-85
2021/05/27 01:49:55;;;;;;;9.35;6.75;;;;;;;7.11;100.00;97493.81;5024675;28;20049;-86
2021/05/27 01:52:22;;;;;;;11.43;6.47;;;;;;;7.13;100.00;97482.75;5046849;28;20051;-85
2021/05/27 01:54:48;;;;;;;9.80;6.60;;;;;;;7.22;100.00;97475.59;5040842;28;20029;-86
2021/05/27 01:57:15;;;;;;;9.00;6.68;;;;;;;7.24;100.00;97490.34;5075383;28;20029;-84
2021/05/27 01:59:42;;;;;;;14.02;7.40;;;;;;;7.25;100.00;97486.53;5058385;28;20056;-85
2021/05/27 02:02:09;;;;;;;11.40;7.10;;;;;;;7.24;100.00;97489.53;5049925;28;20524;-86
2021/05/27 02:04:35;;;;;;;10.30;7.32;;;;;;;7.22;100.00;97487.16;5079755;28;20055;-86
2021/05/27 02:07:15;;;;;;;9.35;6.90;;;;;;;7.23;100.00;97486.06;5031628;28;20048;-86
2021/05/27 02:09:43;;;;;;;11.00;7.60;;;;;;;7.21;100.00;97490.13;5046762;28;20052;-85
2021/05/27 02:12:10;;;;;;;8.95;6.90;;;;;;;7.17;100.00;97481.88;5030364;28;20045;-86
2021/05/27 02:14:37;;;;;;;12.75;7.25;;;;;;;7.13;100.00;97488.94;5026895;28;20080;-87
2021/05/27 02:17:04;;;;;;;24.85;7.85;;;;;;;7.11;100.00;97496.50;5024538;28;20049;-86
2021/05/27 02:19:32;;;;;;;10.82;7.65;;;;;;;7.00;100.00;97484.31;5022266;28;20053;-86
2021/05/27 02:21:59;;;;;;;11.90;7.78;;;;;;;7.03;100.00;97494.47;5055695;28;20045;-85
2021/05/27 02:24:26;;;;;;;17.52;7.43;;;;;;;7.09;100.00;97493.31;5022441;28;20071;-85
2021/05/27 02:26:53;;;;;;;12.25;6.95;;;;;;;7.07;100.00;97478.56;5056239;28;20063;-86
2021/05/27 02:29:22;;;;;;;10.70;6.95;;;;;;;7.13;100.00;97477.34;5054558;28;20499;-85
2021/05/27 02:31:50;;;;;;;13.80;7.57;;;;;;;7.13;100.00;97483.53;5052995;28;20055;-85
2021/05/27 02:34:18;;;;;;;10.13;7.15;;;;;;;7.15;100.00;97484.03;5036220;28;20095;-85
2021/05/27 02:36:44;;;;;;;8.43;6.20;;;;;;;7.25;100.00;97478.47;5058441;28;20071;-86
2021/05/27 02:39:11;;;;;;;10.32;6.07;;;;;;;7.36;100.00;97489.84;5042773;28;20029;-85
2021/05/27 02:41:38;;;;;;;11.15;6.35;;;;;;;7.35;100.00;97478.31;5053342;23;20115;-81
2021/05/27 02:44:05;;;;;;;10.07;5.93;;;;;;;7.48;100.00;97480.19;5012596;28;20042;-82
2021/05/27 02:46:32;;;;;;;9.52;5.95;;;;;;;7.52;100.00;97485.78;5015224;28;20049;-83
2021/05/27 02:48:58;;;;;;;9.73;5.75;;;;;;;7.50;100.00;97483.41;5017973;28;20063;-82
2021/05/27 02:51:25;;;;;;;9.02;5.63;;;;;;;7.62;100.00;97482.09;5041983;28;20042;-80
2021/05/27 02:53:52;;;;;;;9.60;5.55;;;;;;;7.53;100.00;97482.81;5102760;28;20048;-80
2021/05/27 02:56:19;;;;;;;7.90;5.88;;;;;;;7.56;100.00;97486.81;5033673;28;20042;-80
2021/05/27 02:58:46;;;;;;;9.20;6.43;;;;;;;7.50;100.00;97480.72;5102280;28;20059;-80
2021/05/27 03:01:12;;;;;;;9.23;6.63;;;;;;;7.52;100.00;97485.78;5032591;28;20037;-81
2021/05/27 03:03:39;;;;;;;13.48;6.40;;;;;;;7.60;100.00;97470.81;5100469;28;20043;-81
2021/05/27 03:06:06;;;;;;;8.63;6.43;;;;;;;7.60;100.00;97471.63;5101380;28;20053;-81
2021/05/27 03:08:32;;;;;;;12.02;6.63;;;;;;;7.58;100.00;97475.72;5034896;28;20038;-80
2021/05/27 03:10:59;;;;;;;10.63;6.32;;;;;;;7.56;100.00;97489.50;5101233;28;20048;-79
2021/05/27 03:13:27;;;;;;;9.15;6.50;;;;;;;7.59;100.00;97488.09;5101836;28;20094;-79
2021/05/27 03:15:54;;;;;;;12.60;7.28;;;;;;;7.54;100.00;97484.41;5032529;28;20037;-80
2021/05/27 03:18:21;;;;;;;11.40;6.97;;;;;;;7.61;100.00;97481.31;5101648;28;20411;-81
2021/05/27 03:20:48;;;;;;;10.88;6.65;;;;;;;7.64;100.00;97488.78;5101039;28;20041;-80
2021/05/27 03:23:14;;;;;;;10.50;7.10;;;;;;;7.73;100.00;97478.09;5102327;28;20045;-82
2021/05/27 03:25:41;;;;;;;10.95;6.65;;;;;;;7.81;100.00;97488.19;5104347;28;20140;-81
2021/05/27 03:28:08;;;;;;;11.02;6.78;;;;;;;7.86;100.00;97480.00;5033582;28;20038;-80
2021/05/27 03:30:35;;;;;;;11.35;6.95;;;;;;;7.92;100.00;97492.28;5033320;28;20550;-81
2021/05/27 03:33:05;;;;;;;11.25;6.55;;;;;;;7.95;100.00;97495.16;5035054;28;20517;-79
2021/05/27 03:35:32;;;;;;;10.55;6.70;;;;;;;7.99;100.00;97506.16;5033705;28;20598;-81
2021/05/27 03:38:03;;;;;;;11.18;7.05;;;;;;;8.00;100.00;97494.28;5038875;28;20042;-80
2021/05/27 03:40:34;;;;;;;9.10;6.15;;;;;;;7.79;100.00;97458.88;5106148;28;20152;-82
2021/05/27 03:43:05;;;;;;;10.70;6.20;;;;;;;7.85;100.00;97468.41;5103920;28;20045;-81
2021/05/27 03:45:37;;;;;;;15.90;6.65;;;;;;;8.12;100.00;97513.41;5033655;28;20041;-80
2021/05/27 03:48:04;;;;;;;11.07;6.18;;;;;;;8.13;100.00;97515.00;5099957;28;20048;-78
2021/05/27 03:50:31;;;;;;;12.90;6.53;;;;;;;8.11;100.00;97495.63;5091308;28;20098;-80
2021/05/27 03:53:00;;;;;;;11.02;6.10;;;;;;;8.13;100.00;97504.22;5109094;28;20113;-81
2021/05/27 03:55:29;;;;;;;9.82;5.80;;;;;;;8.18;100.00;97513.00;5040865;28;20068;-80
2021/05/27 03:57:56;;;;;;;11.52;6.00;;;;;;;8.23;100.00;97522.09;5039147;28;20037;-81
2021/05/27 04:00:43;;;;;;;9.35;5.82;;;;;;;8.23;100.00;97525.59;5043598;28;20094;-82
2021/05/27 04:03:11;;;;;;;14.70;6.22;;;;;;;8.26;100.00;97524.97;5038402;28;20087;-80
2021/05/27 04:08:24;;;;;;;;;;;;;;;8.26;100.00;97532.28;5039566;28;20080;-83
2021/05/27 04:10:50;;;;;;;10.65;5.95;;;;;;;8.28;100.00;97533.63;5089915;28;20549;-82
2021/05/27 04:13:18;;;;;;;11.15;5.35;;;;;;;8.29;100.00;97527.09;5103921;28;20140;-81
2021/05/27 04:15:46;;;;;;;13.18;5.70;;;;;;;8.29;100.00;97529.78;5090268;28;20046;-82
2021/05/27 04:18:15;;;;;;;12.07;6.10;;;;;;;8.29;100.00;97537.88;5088853;28;20110;-82
2021/05/27 04:20:46;;;;;;;10.63;5.47;;;;;;;8.33;100.00;97530.81;5108943;28;20071;-81
2021/05/27 04:23:32;;;;;;;7.45;5.57;;;;;;;8.40;100.00;97533.06;5096907;28;20056;-81
2021/05/27 04:26:07;;;;;;;7.13;4.88;;;;;;;8.47;100.00;97538.84;5089515;28;20046;-78
2021/05/27 04:28:34;;;;;;;12.13;5.07;;;;;;;8.55;100.00;97554.31;5081374;28;20046;-81
2021/05/27 04:33:46;;;;;;;8.68;5.32;;;;;;;8.63;100.00;97542.81;5087575;28;20046;-81
2021/05/27 04:36:15;;;;;;;10.18;5.40;;;;;;;8.65;100.00;97544.09;5075857;28;20117;-82
2021/05/27 04:38:43;;;;;;;9.95;5.28;;;;;;;8.62;100.00;97541.22;5070310;28;20045;-83
2021/05/27 04:41:11;;;;;;;13.77;5.32;;;;;;;8.60;100.00;97544.22;5064631;28;20109;-82
2021/05/27 04:43:40;;;;;;;11.35;5.78;;;;;;;8.56;100.00;97553.22;5080636;28;20049;-82
2021/05/27 04:46:08;;;;;;;8.50;5.55;;;;;;;8.53;100.00;97557.34;5061967;28;20083;-81
2021/05/27 04:48:36;;;;;;;8.60;5.60;;;;;;;8.55;100.00;97555.13;5069645;28;20485;-82
2021/05/27 04:51:03;;;;;;;9.35;4.72;;;;;;;8.52;100.00;97547.63;5084326;28;20049;-82
2021/05/27 04:53:31;;;;;;;6.82;4.82;;;;;;;8.59;100.00;97545.31;5068202;28;20053;-82
2021/05/27 04:56:01;;;;;;;7.38;5.13;;;;;;;8.69;100.00;97552.41;5069176;28;20050;-83
2021/05/27 04:58:29;;;;;;;9.65;5.32;;;;;;;8.72;100.00;97547.16;5085499;28;20042;-81
2021/05/27 05:00:59;;;;;;;9.73;5.43;;;;;;;8.70;100.00;97551.28;5076193;28;20058;-83
2021/05/27 05:03:31;;;;;;;9.00;5.15;;;;;;;8.70;100.00;97560.19;5074511;28;20042;-84
2021/05/27 05:05:58;;;;;;;7.32;5.07;;;;;;;8.71;100.00;97564.47;5099808;28;20133;-84
2021/05/27 05:08:25;;;;;;;10.85;5.40;;;;;;;8.78;100.00;97564.84;5086847;28;20055;-81
2021/05/27 05:10:51;;;;;;;12.10;5.20;;;;;;;8.80;100.00;97569.94;5083011;28;20416;-82
2021/05/27 05:13:19;;;;;;;9.48;5.00;;;;;;;8.80;100.00;97558.38;5095930;28;20041;-81
2021/05/27 05:15:47;;;;;;;10.02;5.30;;;;;;;8.81;100.00;97560.75;5103882;28;20050;-83
2021/05/27 05:18:18;;;;;;;9.00;5.40;;;;;;;8.91;100.00;97565.09;5087985;28;20533;-84
2021/05/27 05:20:49;;;;;;;8.98;5.22;;;;;;;8.89;100.00;97560.03;5089480;28;20246;-84
2021/05/27 05:23:17;;;;;;;9.68;5.30;;;;;;;8.98;100.00;97582.47;5090768;28;20083;-82
2021/05/27 05:25:43;;;;;;;11.15;4.65;;;;;;;9.06;100.00;97589.06;5107438;28;20222;-85
2021/05/27 05:28:14;;;;;;;8.73;5.55;;;;;;;9.04;100.00;97580.47;5088354;28;20041;-83
2021/05/27 05:30:41;;;;;;;10.93;5.90;;;;;;;9.08;100.00;97576.06;5083561;28;20077;-84
2021/05/27 05:33:08;;;;;;;8.38;5.75;;;;;;;9.08;100.00;97579.56;5083368;28;20067;-83
2021/05/27 05:35:36;;;;;;;10.30;5.25;;;;;;;9.18;100.00;97582.03;5083537;28;20408;-85
2021/05/27 05:38:23;;;;;;;8.98;4.97;;;;;;;9.15;100.00;97577.22;5102007;28;20049;-83
2021/05/27 05:40:59;;;;;;;9.07;5.60;;;;;;;9.33;100.00;97583.53;5103972;28;20041;-84
2021/05/27 05:43:32;;;;;;;8.07;5.55;;;;;;;9.33;100.00;97576.25;5087146;28;20075;-84
2021/05/27 05:45:59;;;;;;;13.43;5.38;;;;;;;9.53;100.00;97580.31;5084414;28;20076;-84
2021/05/27 05:48:26;;;;;;;7.90;5.50;;;;;;;9.55;100.00;97569.22;5086571;28;20489;-84
2021/05/27 05:50:57;;;;;;;7.72;5.00;;;;;;;9.60;100.00;97585.31;5084251;28;20041;-84
2021/05/27 05:53:24;;;;;;;10.00;5.85;;;;;;;9.55;100.00;97596.25;5102166;28;20231;-84
2021/05/27 05:55:55;;;;;;;9.60;5.65;;;;;;;9.77;100.00;97594.31;5085505;28;20071;-83
2021/05/27 05:58:25;;;;;;;7.53;5.22;;;;;;;9.78;100.00;97587.00;5085142;28;20041;-83
2021/05/27 06:00:53;;;;;;;9.30;5.47;;;;;;;10.09;100.00;97593.16;5084396;28;20071;-83
2021/05/27 06:03:20;;;;;;;9.25;5.07;;;;;;;10.19;100.00;97592.94;5085953;28;20118;-83
2021/05/27 06:05:47;;;;;;;9.60;5.20;;;;;;;10.48;100.00;97581.53;5085775;28;20694;-84
2021/05/27 06:08:14;;;;;;;6.88;4.72;;;;;;;10.40;100.00;97593.16;5086069;28;20098;-84
2021/05/27 06:10:41;;;;;;;7.63;4.75;;;;;;;10.49;100.00;97589.34;5088574;28;20049;-82
2021/05/27 06:13:07;;;;;;;7.65;4.65;;;;;;;10.52;100.00;97591.44;5089067;28;20053;-83
2021/05/27 06:15:36;;;;;;;10.57;4.70;;;;;;;10.70;100.00;97586.03;5089087;28;20497;-84
2021/05/27 06:18:03;;;;;;;8.52;4.60;;;;;;;10.82;100.00;97587.00;5090132;28;20566;-84
2021/05/27 06:20:30;;;;;;;9.75;4.80;;;;;;;10.65;100.00;97592.41;5087921;28;20118;-83
2021/05/27 06:22:58;;;;;;;9.30;4.57;;;;;;;10.54;100.00;97578.38;5089462;28;20050;-84
2021/05/27 06:25:25;;;;;;;10.18;4.35;;;;;;;10.49;100.00;97580.44;5088423;28;20140;-83
2021/05/27 06:27:53;;;;;;;9.80;4.70;;;;;;;10.37;100.00;97581.06;5104333;28;20404;-82
2021/05/27 06:30:21;;;;;;;11.02;4.57;;;;;;;10.44;100.00;97591.41;5087083;28;20056;-83
2021/05/27 06:32:49;;;;;;;9.40;4.38;;;;;;;10.52;100.00;97601.47;5087407;28;20092;-84
2021/05/27 06:35:18;;;;;;;7.97;4.57;;;;;;;10.51;100.00;97579.00;5085618;28;20546;-83
2021/05/27 06:37:54;;;;;;;8.02;4.43;;;;;;;10.87;100.00;97578.72;5087531;28;20050;-82
2021/05/27 06:40:27;;;;;;;6.97;4.50;;;;;;;11.15;100.00;97558.34;5086347;28;20049;-83
2021/05/27 06:42:59;;;;;;;9.32;4.07;;;;;;;11.40;100.00;97569.47;5033948;28;20109;-83
2021/05/27 06:45:28;;;;;;;7.30;4.30;;;;;;;11.73;100.00;97590.31;5085622;28;20152;-85
2021/05/27 06:47:57;;;;;;;12.18;4.45;;;;;;;12.03;100.00;97588.47;5086239;28;20053;-82
2021/05/27 06:50:33;;;;;;;7.30;3.88;;;;;;;11.84;100.00;97580.72;5101209;28;20038;-84
2021/05/27 06:53:04;;;;;;;21.70;4.97;;;;;;;11.86;100.00;97583.09;5085440;28;20573;-84
2021/05/27 06:55:34;;;;;;;8.68;4.35;;;;;;;12.12;100.00;97583.00;5085915;28;20434;-84
2021/05/27 06:58:01;;;;;;;7.63;4.38;;;;;;;12.00;100.00;97572.06;5102655;28;20519;-84
2021/05/27 07:00:30;;;;;;;9.50;4.38;;;;;;;11.92;100.00;97576.41;5085155;28;20045;-81
2021/05/27 07:02:57;;;;;;;6.40;3.95;;;;;;;11.69;100.00;97580.47;5084999;28;20527;-83
2021/05/27 07:05:25;;;;;;;7.32;3.95;;;;;;;11.82;100.00;97580.25;5083855;28;20061;-82
2021/05/27 07:07:51;;;;;;;6.20;3.90;;;;;;;11.66;100.00;97581.06;5085354;28;20140;-82
2021/05/27 07:10:18;;;;;;;6.38;3.72;;;;;;;11.68;100.00;97579.66;5085242;28;20046;-82
2021/05/27 07:12:53;;;;;;;4.80;3.38;;;;;;;11.55;100.00;97582.53;5085199;28;20068;-83
2021/05/27 07:15:23;;;;;;;7.22;3.60;;;;;;;11.46;100.00;97577.09;5100700;28;20050;-83
2021/05/27 07:17:53;;;;;;;7.35;3.95;;;;;;;11.50;100.00;97577.25;5085997;28;20069;-83
2021/05/27 07:20:21;;;;;;;8.68;3.92;;;;;;;11.64;100.00;97572.47;5083919;28;20041;-84
2021/05/27 07:22:48;;;;;;;7.50;4.13;;;;;;;11.85;100.00;97566.03;5084379;28;20102;-83
2021/05/27 07:25:15;;;;;;;6.90;4.10;;;;;;;12.14;100.00;97584.28;5099868;28;20513;-83
2021/05/27 07:27:43;;;;;;;5.65;3.72;;;;;;;12.01;100.00;97577.16;5100441;28;20057;-83
2021/05/27 07:30:10;;;;;;;6.55;3.95;;;;;;;11.92;100.00;97572.88;5082556;28;20126;-84
2021/05/27 07:32:37;;;;;;;8.95;4.07;;;;;;;12.05;100.00;97571.88;5100450;28;20429;-83
2021/05/27 07:35:05;;;;;;;6.65;4.00;;;;;;;12.27;100.00;97569.69;5082542;28;20148;-83
2021/05/27 07:37:32;;;;;;;6.97;3.50;;;;;;;12.43;100.00;97568.00;5100725;28;20041;-81
2021/05/27 07:39:59;;;;;;;6.25;3.33;;;;;;;13.07;100.00;97562.31;5083092;28;20446;-83
2021/05/27 07:42:27;;;;;;;6.05;3.28;;;;;;;12.91;100.00;97569.44;5100036;28;20052;-82
2021/05/27 07:44:54;;;;;;;5.40;3.50;;;;;;;12.49;100.00;97571.34;5081683;28;20053;-83
2021/05/27 07:47:21;;;;;;;6.13;3.13;;;;;;;12.87;100.00;97573.97;5082989;28;20050;-82
2021/05/27 07:49:50;;;;;;;5.43;3.42;;;;;;;13.14;100.00;97565.28;5082747;28;20042;-82
2021/05/27 07:52:16;;;;;;;4.40;3.08;;;;;;;13.07;100.00;97562.31;5083224;28;20052;-82
2021/05/27 07:54:43;;;;;;;4.30;3.05;;;;;;;13.09;100.00;97570.94;5082812;28;20377;-82
2021/05/27 07:57:10;;;;;;;7.97;3.30;;;;;;;13.35;100.00;97552.47;5086130;28;20501;-82
2021/05/27 07:59:37;;;;;;;5.57;3.28;;;;;;;12.75;100.00;97569.22;5085401;28;20056;-82
2021/05/27 08:02:04;;;;;;;5.40;3.35;;;;;;;13.06;100.00;97572.38;5085254;28;20053;-83
2021/05/27 08:04:31;;;;;;;5.43;3.25;;;;;;;13.41;100.00;97572.09;5082403;28;20494;-84
2021/05/27 08:06:58;;;;;;;6.85;3.10;;;;;;;13.62;100.00;97567.41;5082295;28;20049;-83
2021/05/27 08:09:28;;;;;;;4.15;3.10;;;;;;;13.72;100.00;97569.72;5081988;28;20053;-83
2021/05/27 08:12:00;;;;;;;6.43;3.05;;;;;;;13.97;100.00;97557.72;5030979;28;20091;-83
2021/05/27 08:14:27;;;;;;;5.18;2.92;;;;;;;13.70;100.00;97563.81;5012827;28;20045;-83
2021/05/27 08:16:54;;;;;;;5.57;3.25;;;;;;;13.64;100.00;97570.59;5097570;28;20059;-83
2021/05/27 08:19:21;;;;;;;4.70;2.90;;;;;;;13.65;100.00;97570.25;5098658;28;20563;-82
2021/05/27 08:21:49;;;;;;;8.98;3.10;;;;;;;13.55;100.00;97561.72;5081777;28;20452;-83
2021/05/27 08:24:15;;;;;;;10.20;3.22;;;;;;;13.73;100.00;97566.63;5081557;28;20465;-83
2021/05/27 08:26:45;;;;;;;3.67;2.70;;;;;;;13.30;100.00;97566.28;5081993;28;20410;-82
2021/05/27 08:29:11;;;;;;;8.02;3.50;;;;;;;13.52;100.00;97578.72;5081096;28;20069;-81
2021/05/27 08:31:40;;;;;;;10.00;3.45;;;;;;;13.24;100.00;97577.69;5098203;28;20042;-83
2021/05/27 08:34:08;;;;;;;7.45;3.03;;;;;;;12.98;100.00;97573.22;5080630;28;20050;-83
2021/05/27 08:36:36;;;;;;;8.30;3.20;;;;;;;12.98;100.00;97575.16;5080541;28;20079;-83
2021/05/27 08:39:04;;;;;;;9.07;3.20;;;;;;;12.82;100.00;97574.16;5081649;28;20057;-82
2021/05/27 08:41:31;;;;;;;4.60;2.97;;;;;;;13.00;100.00;97573.72;5083031;28;20049;-81
2021/05/27 08:44:01;;;;;;;5.45;2.85;;;;;;;12.99;100.00;97590.31;5019284;28;20475;-81
2021/05/27 08:46:29;;;;;;;4.95;3.10;;;;;;;13.00;100.00;97583.78;5085932;28;20148;-81
2021/05/27 08:48:56;;;;;;;6.45;2.97;;;;;;;13.31;100.00;97588.81;5085786;28;20067;-81
2021/05/27 08:51:23;;;;;;;7.05;3.25;;;;;;;13.53;100.00;97594.69;5086591;28;20050;-83
2021/05/27 08:53:50;;;;;;;7.53;2.97;;;;;;;13.14;100.00;97592.47;5091507;28;20059;-82
2021/05/27 08:56:17;;;;;;;9.38;2.90;;;;;;;12.91;100.00;97575.69;5112167;28;20125;-80
2021/05/27 08:58:44;;;;;;;6.13;3.13;;;;;;;12.83;100.00;97583.88;5103329;28;20085;-81
2021/05/27 09:01:11;;;;;;;5.68;2.50;;;;;;;12.78;100.00;97595.75;5085334;28;20072;-81
2021/05/27 09:03:48;;;;;;;4.97;2.58;;;;;;;12.91;100.00;97608.28;5086613;28;20052;-81
2021/05/27 09:06:15;;;;;;;4.30;2.60;;;;;;;12.74;100.00;97594.81;5102134;28;20136;-81
2021/05/27 09:08:42;;;;;;;6.60;2.60;;;;;;;12.84;100.00;97586.28;5104359;28;20118;-81
2021/05/27 09:11:16;;;;;;;4.45;2.40;;;;;;;13.39;100.00;97591.47;5088896;28;20132;-81
2021/05/27 09:13:57;;;;;;;3.60;2.40;;;;;;;13.30;100.00;97584.50;5104999;28;20081;-81
2021/05/27 09:16:26;;;;;;;4.80;2.05;;;;;;;13.41;100.00;97605.53;5086204;28;20413;-81
2021/05/27 09:18:53;;;;;;;6.40;2.20;;;;;;;13.47;100.00;97592.53;5088060;28;20068;-81
2021/05/27 09:21:41;;;;;;;6.10;1.90;;;;;;;13.97;100.00;97605.91;5087976;28;20073;-81
2021/05/27 09:24:08;;;;;;;3.42;1.90;;;;;;;13.24;100.00;97608.38;5087901;28;20100;-81
2021/05/27 09:26:56;;;;;;;5.65;1.90;;;;;;;13.34;100.00;97602.56;5087003;28;20049;-80
2021/05/27 09:29:23;;;;;;;3.90;2.00;;;;;;;13.51;100.00;97604.31;5087167;28;20424;-80
2021/05/27 09:32:06;;;;;;;6.97;1.65;;;;;;;14.02;100.00;97602.97;5103626;28;20056;-81
2021/05/27 09:34:43;;;;;;;1.95;1.45;;;;;;;14.29;100.00;97613.25;5086722;28;20059;-81
2021/05/27 09:37:27;;;;;;;5.53;1.63;;;;;;;14.25;100.00;97604.16;5087274;28;20045;-81
2021/05/27 09:39:54;;;;;;;3.70;1.70;;;;;;;14.54;100.00;97609.41;5102959;28;20068;-81
2021/05/27 09:42:22;;;;;;;2.65;1.48;;;;;;;14.54;100.00;97603.97;5087617;28;20053;-80
2021/05/27 09:44:51;;;;;;;3.22;1.83;;;;;;;14.53;100.00;97624.16;5086537;28;20153;-80
2021/05/27 09:47:38;;;;;;;6.47;2.10;;;;;;;14.37;100.00;97611.56;5088731;28;20653;-82
2021/05/27 09:50:06;;;;;;;1.65;1.38;;;;;;;13.84;100.00;97615.19;5086581;28;20410;-81
2021/05/27 09:52:40;;;;;;;3.05;1.60;;;;;;;13.35;100.00;97617.72;5103278;28;20098;-80
2021/05/27 09:55:13;;;;;;;4.00;2.00;;;;;;;13.25;100.00;97614.63;5087389;28;20080;-81
2021/05/27 09:57:42;;;;;;;4.45;1.90;;;;;;;13.23;100.00;97628.56;5087241;28;20050;-82
2021/05/27 10:00:29;;;;;;;2.58;1.50;;;;;;;13.47;100.00;97611.56;5101849;28;20052;-82
2021/05/27 10:02:56;;;;;;;2.33;1.55;;;;;;;13.21;100.00;97621.84;5086578;28;20086;-82
2021/05/27 10:05:23;;;;;;;3.53;1.65;;;;;;;13.86;100.00;97629.28;5084960;28;20045;-82
2021/05/27 10:07:55;;;;;;;5.20;1.80;;;;;;;14.09;100.00;97619.56;5086851;28;20046;-82
2021/05/27 10:10:43;;;;;;;6.50;2.22;;;;;;;14.25;100.00;97623.19;5088726;28;20049;-82
2021/05/27 10:13:14;;;;;;;3.67;1.67;;;;;;;13.76;100.00;97633.19;5085583;28;20421;-83
2021/05/27 10:15:45;;;;;;;3.03;1.60;;;;;;;14.21;100.00;97634.00;5084666;28;20049;-83
2021/05/27 10:18:19;;;;;;;3.33;1.88;;;;;;;14.26;100.00;97638.41;5086183;28;20075;-81
2021/05/27 10:20:49;;;;;;;6.88;1.70;;;;;;;14.12;100.00;97630.56;5086335;28;20041;-80
2021/05/27 10:23:16;;;;;;;2.58;1.90;;;;;;;14.51;100.00;97631.09;5086184;28;20117;-77
2021/05/27 10:25:45;;;;;;;2.45;1.70;;;;;;;14.51;100.00;97648.22;5086813;28;20049;-81
2021/05/27 10:28:16;;;;;;;3.33;1.90;;;;;;;13.95;100.00;97624.53;5088340;28;20518;-84
2021/05/27 10:30:45;;;;;;;5.80;1.70;;;;;;;13.72;100.00;97635.81;5089779;28;20048;-80
2021/05/27 10:33:19;;;;;;;3.42;1.70;;;;;;;13.74;100.00;97635.44;5090177;28;20557;-82
2021/05/27 10:35:58;;;;;;;3.30;1.70;;;;;;;13.23;100.00;97634.00;5091241;28;20053;-83
2021/05/27 10:38:37;;;;;;;2.55;1.65;;;;;;;13.19;100.00;97633.03;5084715;28;20069;-80
2021/05/27 10:41:08;;;;;;;3.67;2.30;;;;;;;13.09;100.00;97636.16;5086391;28;20070;-81
2021/05/27 10:43:35;;;;;;;5.75;2.38;;;;;;;12.87;100.00;97637.25;5085056;28;20053;-80
2021/05/27 10:46:08;;;;;;;5.32;2.30;;;;;;;12.67;100.00;97650.78;5085121;28;20046;-82
2021/05/27 10:48:38;;;;;;;4.80;2.50;;;;;;;12.67;100.00;97653.50;5087408;28;20113;-81
2021/05/27 10:51:17;;;;;;;5.40;2.50;;;;;;;12.97;100.00;97650.44;5085722;28;20045;-82
2021/05/27 10:53:48;;;;;;;6.20;2.55;;;;;;;13.18;100.00;97645.06;5086453;28;20045;-82
2021/05/27 10:56:19;;;;;;;2.88;2.08;;;;;;;13.44;100.00;97639.41;5103963;28;20053;-81
2021/05/27 10:58:51;;;;;;;3.80;2.10;;;;;;;13.56;100.00;97636.75;5107948;28;20049;-81
2021/05/27 11:01:37;;;;;;;2.90;2.17;;;;;;;13.32;100.00;97651.00;5089588;28;20440;-82
2021/05/27 11:04:23;;;;;;;4.95;2.65;;;;;;;13.00;100.00;97638.94;5088749;28;20049;-82
2021/05/27 11:07:18;;;;;;;7.78;3.15;;;;;;;13.47;100.00;97641.47;5088844;28;20054;-82
2021/05/27 11:09:48;;;;;;;6.30;2.42;;;;;;;15.07;100.00;97641.06;5087274;28;20088;-82
2021/05/27 11:12:30;;;;;;;2.95;2.03;;;;;;;14.96;100.00;97646.19;5091271;28;20077;-83
2021/05/27 11:15:00;;;;;;;4.97;2.00;;;;;;;14.23;100.00;97647.25;5107267;28;20065;-82
2021/05/27 11:17:28;;;;;;;5.80;2.20;;;;;;;13.29;100.00;97642.75;5103591;28;20041;-82
2021/05/27 11:20:03;;;;;;;5.43;2.42;;;;;;;13.29;100.00;97650.91;5030838;28;20091;-82
2021/05/27 11:25:29;;;;;;;3.88;2.30;;;;;;;15.03;100.00;97642.88;5099519;28;20057;-82
2021/05/27 11:28:04;;;;;;;3.45;2.20;;;;;;;16.20;100.00;97638.81;5091752;28;20050;-82
2021/05/27 11:30:40;;;;;;;;;;;;;;;16.20;100.00;97631.44;5082336;28;20133;-82
2021/05/27 11:33:31;;;;;;;3.63;2.22;;;;;;;15.10;100.00;97640.34;5084201;28;20180;-81
2021/05/27 11:36:00;;;;;;;3.75;2.15;;;;;;;14.29;100.00;97629.56;5082456;28;20140;-81
2021/05/27 11:38:32;;;;;;;3.60;2.55;;;;;;;14.09;100.00;97642.13;5082874;28;20077;-83
2021/05/27 11:41:06;;;;;;;9.10;2.88;;;;;;;14.05;100.00;97633.06;5030243;28;20425;-81
2021/05/27 11:43:38;;;;;;;4.18;2.83;;;;;;;14.00;100.00;97633.25;5083820;28;20076;-83
2021/05/27 11:46:11;;;;;;;6.53;3.10;;;;;;;14.14;100.00;97639.19;5081786;28;20077;-83
2021/05/27 11:48:40;;;;;;;6.68;3.00;;;;;;;14.44;100.00;97644.47;5082199;28;20087;-81